Time;durP1;ratioP1;P1;durP2;ratioP2;P2;SDS_P1;SDS_P2;PMS_P1;PMS_P2;Temp;Humidity;BMP_temperature;BMP_pressure;BME280_temperature;BME280_humidity;BME280_pressure;Samples;Min_cycle;Max_cycle;Signal;HPM_P1;HPM_P2
2022/11/24 00:00:20;;;;;;;14.82;2.47;;;;;;;8.98;69.48;98385.44;5164061;28;20117;-75
2022/11/24 00:03:13;;;;;;;10.80;2.22;;;;;;;8.97;69.78;98397.81;5163601;28;20104;-75
2022/11/24 00:06:14;;;;;;;22.75;3.22;;;;;;;9.04;69.23;98401.56;5164273;28;20132;-75
2022/11/24 00:09:04;;;;;;;15.15;2.42;;;;;;;8.87;69.39;98394.41;5163164;28;20130;-75
2022/11/24 00:11:55;;;;;;;14.55;2.22;;;;;;;8.78;69.58;98404.06;5163135;28;20097;-75
2022/11/24 00:14:45;;;;;;;13.38;2.05;;;;;;;8.58;69.40;98395.38;5148847;28;20050;-75
2022/11/24 00:17:35;;;;;;;7.40;2.10;;;;;;;8.54;69.33;98409.03;5164067;28;20050;-75
2022/11/24 00:20:26;;;;;;;18.13;2.28;;;;;;;8.52;69.69;98405.72;5176795;28;20054;-75
2022/11/24 00:23:15;;;;;;;13.13;2.85;;;;;;;8.53;70.32;98413.47;5164619;28;20144;-74
2022/11/24 00:26:11;;;;;;;11.10;2.35;;;;;;;8.43;69.89;98410.88;5163167;28;20121;-74
2022/11/24 00:29:04;;;;;;;10.15;1.80;;;;;;;8.26;69.41;98410.75;5163488;28;20050;-75
2022/11/24 00:31:55;;;;;;;16.50;2.53;;;;;;;8.15;69.86;98409.13;5162673;28;20137;-75
2022/11/24 00:34:46;;;;;;;18.20;2.50;;;;;;;8.24;70.20;98413.53;5149007;28;20050;-75
2022/11/24 00:37:36;;;;;;;14.88;2.60;;;;;;;8.15;69.84;98414.41;5164179;28;20559;-75
2022/11/24 00:40:26;;;;;;;15.27;2.50;;;;;;;8.21;70.22;98424.38;5176288;28;20518;-75
2022/11/24 00:43:23;;;;;;;12.85;2.08;;;;;;;8.20;69.65;98422.72;5163104;28;20058;-75
2022/11/24 00:46:13;;;;;;;11.38;2.35;;;;;;;8.08;70.04;98424.72;5163283;28;20049;-74
2022/11/24 00:49:04;;;;;;;11.50;2.25;;;;;;;8.04;70.61;98423.31;5163652;28;20555;-75
2022/11/24 00:51:54;;;;;;;17.75;2.42;;;;;;;8.04;70.45;98433.03;5150042;28;20068;-75
2022/11/24 00:54:45;;;;;;;20.80;3.20;;;;;;;8.10;70.52;98432.47;5164217;28;20069;-74
2022/11/24 00:57:34;;;;;;;17.80;3.03;;;;;;;8.06;70.71;98426.66;5163668;28;20073;-74
2022/11/24 01:00:25;;;;;;;17.65;2.97;;;;;;;8.26;70.60;98442.47;5162785;28;20061;-75
2022/11/24 01:03:16;;;;;;;18.05;2.72;;;;;;;8.31;71.62;98438.44;5163526;28;20483;-74
2022/11/24 01:06:08;;;;;;;20.77;2.47;;;;;;;8.54;70.52;98444.19;5163106;28;20057;-75
2022/11/24 01:08:58;;;;;;;18.60;3.03;;;;;;;8.33;71.20;98444.38;5162889;28;20109;-75
2022/11/24 01:12:00;;;;;;;17.60;3.85;;;;;;;8.63;70.11;98424.84;5162884;28;20065;-74
2022/11/24 01:14:50;;;;;;;17.42;3.00;;;;;;;8.60;70.51;98453.38;5162738;28;20157;-75
2022/11/24 01:17:40;;;;;;;16.25;3.30;;;;;;;8.67;70.60;98455.28;5162469;28;20053;-74
2022/11/24 01:20:30;;;;;;;23.08;3.22;;;;;;;8.63;69.90;98456.56;5161769;28;20080;-75
2022/11/24 01:23:20;;;;;;;22.83;2.75;;;;;;;8.57;70.55;98465.06;5161885;28;20122;-74
2022/11/24 01:26:13;;;;;;;17.50;3.30;;;;;;;8.79;69.88;98468.34;5162111;28;20065;-74
2022/11/24 01:29:03;;;;;;;12.65;2.47;;;;;;;8.63;69.76;98476.88;5161434;28;20547;-75
2022/11/24 01:31:53;;;;;;;12.75;2.42;;;;;;;8.55;69.97;98460.91;5161916;28;20186;-74
2022/11/24 01:34:42;;;;;;;19.67;3.05;;;;;;;8.61;69.90;98479.66;5161932;28;20081;-74
2022/11/24 01:37:32;;;;;;;18.52;2.40;;;;;;;8.56;69.50;98470.50;5161812;28;20054;-74
2022/11/24 01:40:23;;;;;;;13.68;2.67;;;;;;;8.43;69.52;98479.56;5175229;28;20042;-73
2022/11/24 01:43:20;;;;;;;14.18;2.92;;;;;;;8.31;70.60;98480.69;5161747;28;20611;-73
2022/11/24 01:46:27;;;;;;;17.27;3.03;;;;;;;8.38;70.81;98479.16;5159972;28;20124;-74
2022/11/24 01:49:26;;;;;;;17.15;2.08;;;;;;;8.42;70.19;98466.50;5161949;28;20066;-75
2022/11/24 01:52:30;;;;;;;15.50;2.35;;;;;;;8.60;69.81;98471.88;5161097;28;20117;-74
2022/11/24 01:55:24;;;;;;;17.15;2.88;;;;;;;8.60;68.79;98463.94;5162098;28;20120;-74
2022/11/24 01:58:20;;;;;;;16.83;2.30;;;;;;;8.73;69.02;98474.19;5161601;28;20124;-74
2022/11/24 02:01:10;;;;;;;15.30;1.92;;;;;;;8.66;69.60;98480.06;5161968;28;20123;-74
2022/11/24 02:04:07;;;;;;;22.23;2.38;;;;;;;8.70;69.74;98483.22;5161542;28;20513;-75
2022/11/24 02:06:59;;;;;;;12.63;1.52;;;;;;;8.78;69.79;98499.22;5162426;28;20197;-74
2022/11/24 02:10:01;;;;;;;15.35;2.08;;;;;;;8.76;69.11;98500.34;5160786;28;20039;-75
2022/11/24 02:12:54;;;;;;;12.93;2.13;;;;;;;8.64;69.66;98483.81;5162100;28;20569;-74
2022/11/24 02:15:44;;;;;;;10.70;1.38;;;;;;;8.73;69.70;98505.91;5162275;28;20125;-74
2022/11/24 02:18:37;;;;;;;15.52;2.08;;;;;;;8.72;69.51;98501.63;5161277;28;20062;-74
2022/11/24 02:21:27;;;;;;;14.40;2.00;;;;;;;8.74;70.25;98502.28;5160605;28;20175;-74
2022/11/24 02:24:24;;;;;;;18.73;2.28;;;;;;;8.76;69.20;98503.81;5161662;28;20520;-74
2022/11/24 02:27:14;;;;;;;11.50;1.73;;;;;;;8.73;69.39;98493.53;5161164;28;20042;-74
2022/11/24 02:30:04;;;;;;;10.63;2.22;;;;;;;8.82;69.27;98511.16;5145841;28;20053;-74
2022/11/24 02:32:54;;;;;;;11.20;1.63;;;;;;;8.81;68.96;98509.50;5162073;28;20060;-75
2022/11/24 02:35:45;;;;;;;15.23;1.77;;;;;;;8.68;69.23;98506.34;5161939;28;20586;-74
2022/11/24 02:38:35;;;;;;;15.63;1.73;;;;;;;8.74;69.11;98515.50;5161368;28;20069;-76
2022/11/24 02:41:27;;;;;;;9.55;2.05;;;;;;;8.98;68.56;98518.50;5161049;28;20046;-76
2022/11/24 02:44:20;;;;;;;13.77;1.90;;;;;;;9.05;68.53;98508.16;5161479;28;20563;-76
2022/11/24 02:47:11;;;;;;;10.80;1.95;;;;;;;8.98;68.94;98507.09;5162311;28;20517;-76
2022/11/24 02:50:02;;;;;;;10.57;1.98;;;;;;;8.86;68.39;98498.50;5161813;28;20051;-76
2022/11/24 02:52:52;;;;;;;10.63;1.95;;;;;;;8.97;68.39;98505.41;5160995;28;20061;-76
2022/11/24 02:55:42;;;;;;;10.82;1.63;;;;;;;8.88;68.40;98507.94;5160908;28;20149;-76
2022/11/24 02:58:32;;;;;;;9.15;1.77;;;;;;;8.83;68.54;98504.91;5161301;28;20057;-76
2022/11/24 03:01:22;;;;;;;9.23;2.22;;;;;;;8.86;68.70;98506.41;5161586;28;20050;-76
2022/11/24 03:04:12;;;;;;;7.15;1.45;;;;;;;8.91;68.53;98518.25;5161338;28;20051;-75
2022/11/24 03:07:03;;;;;;;21.50;2.00;;;;;;;8.88;68.49;98521.16;5161835;28;20060;-76
2022/11/24 03:09:53;;;;;;;5.40;1.60;;;;;;;8.79;69.21;98513.28;5142461;28;20421;-76
2022/11/24 03:12:43;;;;;;;7.95;1.67;;;;;;;8.75;69.05;98507.44;5154316;28;20586;-76
2022/11/24 03:15:34;;;;;;;11.48;1.63;;;;;;;8.81;69.25;98517.44;5145869;28;20088;-75
2022/11/24 03:18:25;;;;;;;6.93;1.50;;;;;;;8.84;69.16;98530.38;5161475;28;20780;-76
2022/11/24 03:21:15;;;;;;;14.10;2.03;;;;;;;8.90;69.35;98523.66;5161880;28;20723;-76
2022/11/24 03:24:05;;;;;;;14.68;1.35;;;;;;;8.97;69.19;98535.31;5162292;28;20050;-76
2022/11/24 03:26:55;;;;;;;14.93;2.55;;;;;;;8.82;69.18;98529.69;5161622;28;20097;-76
2022/11/24 03:29:46;;;;;;;13.00;1.63;;;;;;;8.82;69.00;98527.03;5155784;28;20420;-76
2022/11/24 03:32:36;;;;;;;9.20;1.45;;;;;;;8.76;69.31;98540.81;5160560;28;20050;-76
2022/11/24 03:35:26;;;;;;;10.88;1.58;;;;;;;8.70;69.23;98539.56;5161399;28;20089;-76
2022/11/24 03:38:17;;;;;;;11.68;1.95;;;;;;;8.56;69.15;98531.28;5164563;28;20494;-76
2022/11/24 03:41:07;;;;;;;16.08;2.28;;;;;;;8.65;69.11;98548.94;5150334;28;20065;-76
2022/11/24 03:43:57;;;;;;;9.82;1.90;;;;;;;8.79;68.99;98548.47;5165657;28;20129;-76
2022/11/24 03:46:47;;;;;;;12.95;1.92;;;;;;;8.85;69.20;98547.91;5164083;28;20069;-76
2022/11/24 03:49:39;;;;;;;18.83;2.65;;;;;;;8.75;69.26;98560.31;5157706;28;20050;-76
2022/11/24 03:52:29;;;;;;;9.50;1.67;;;;;;;8.75;69.59;98555.03;5164055;28;20532;-76
2022/11/24 03:55:19;;;;;;;13.00;1.95;;;;;;;8.94;68.47;98564.72;5164566;28;20057;-76
2022/11/24 03:58:10;;;;;;;12.63;1.90;;;;;;;8.78;69.08;98559.19;5165063;28;20062;-76
2022/11/24 04:01:00;;;;;;;7.70;1.38;;;;;;;8.99;68.98;98566.91;5164211;28;20054;-76
2022/11/24 04:03:50;;;;;;;10.55;1.75;;;;;;;8.81;69.04;98557.09;5165188;28;20065;-76
2022/11/24 04:06:40;;;;;;;6.53;1.77;;;;;;;8.58;69.63;98542.53;5148785;28;20129;-76
2022/11/24 04:09:31;;;;;;;12.55;1.90;;;;;;;8.18;71.11;98568.13;5164313;28;20105;-76
2022/11/24 04:12:42;;;;;;;13.27;2.10;;;;;;;8.05;72.64;98572.84;5164456;28;20405;-76
2022/11/24 04:15:31;;;;;;;25.13;2.75;;;;;;;8.13;72.43;98574.78;5164703;28;20429;-76
2022/11/24 04:18:21;;;;;;;14.60;2.03;;;;;;;8.20;71.55;98560.88;5164507;28;20604;-76
2022/11/24 04:21:11;;;;;;;8.57;1.67;;;;;;;7.97;72.61;98565.59;5163126;28;20133;-77
2022/11/24 04:24:01;;;;;;;11.93;1.95;;;;;;;8.12;72.11;98575.78;5164553;28;20060;-76
2022/11/24 04:26:51;;;;;;;9.60;2.10;;;;;;;8.06;72.24;98584.25;5163172;28;20452;-74
2022/11/24 04:29:41;;;;;;;6.47;2.00;;;;;;;7.75;73.70;98585.19;5143551;28;20554;-75
2022/11/24 04:32:31;;;;;;;13.35;2.17;;;;;;;7.78;73.40;98584.03;5163116;28;20058;-75
2022/11/24 04:35:22;;;;;;;12.02;2.65;;;;;;;7.92;72.40;98582.84;5176683;28;20505;-75
2022/11/24 04:38:12;;;;;;;10.05;1.58;;;;;;;7.81;73.54;98588.22;5164053;28;20058;-75
2022/11/24 04:41:22;;;;;;;11.60;1.95;;;;;;;7.48;74.88;98593.72;5154226;28;20489;-75
2022/11/24 04:44:12;;;;;;;6.22;1.80;;;;;;;7.49;74.66;98586.63;5157724;28;20416;-75
2022/11/24 04:47:03;;;;;;;9.85;1.70;;;;;;;7.31;75.23;98583.78;5163478;28;20077;-75
2022/11/24 04:49:54;;;;;;;6.72;1.45;;;;;;;7.62;74.61;98592.50;5163172;28;20120;-75
2022/11/24 04:52:44;;;;;;;10.88;1.85;;;;;;;7.56;74.10;98574.56;5173355;28;20061;-75
2022/11/24 04:55:37;;;;;;;10.90;1.85;;;;;;;7.58;74.85;98591.09;5163685;28;20123;-75
2022/11/24 04:58:27;;;;;;;7.93;1.45;;;;;;;7.71;73.94;98591.66;5163180;28;20061;-75
2022/11/24 05:01:17;;;;;;;5.93;1.73;;;;;;;7.62;73.59;98603.06;5154467;28;20081;-75
2022/11/24 05:04:12;;;;;;;5.65;1.25;;;;;;;7.64;73.79;98579.16;5162281;28;20064;-75
2022/11/24 05:07:03;;;;;;;11.95;2.30;;;;;;;7.77;73.02;98606.16;5162396;28;20136;-75
2022/11/24 05:13:04;;;;;;;9.45;1.98;;;;;;;7.68;73.28;98599.03;5162640;28;20516;-75
2022/11/24 05:15:55;;;;;;;12.55;2.17;;;;;;;7.75;73.04;98608.09;5162322;28;20053;-75
2022/11/24 05:18:45;;;;;;;13.88;1.98;;;;;;;8.12;72.20;98610.94;5162628;28;20124;-75
2022/11/24 05:21:39;;;;;;;8.82;1.90;;;;;;;8.22;72.09;98629.44;5175763;28;20062;-76
2022/11/24 05:24:29;;;;;;;6.72;1.90;;;;;;;7.61;74.31;98605.81;5161869;28;20156;-76
2022/11/24 05:27:20;;;;;;;11.57;1.88;;;;;;;7.62;75.38;98628.63;5151656;28;20054;-76
2022/11/24 05:30:11;;;;;;;17.40;3.10;;;;;;;7.82;73.96;98624.22;5163270;28;20122;-76
2022/11/24 05:33:06;;;;;;;7.38;2.10;;;;;;;8.13;73.62;98619.69;5147374;28;20188;-76
2022/11/24 05:36:02;;;;;;;9.57;2.05;;;;;;;8.39;72.40;98631.41;5162677;28;20461;-76
2022/11/24 05:38:52;;;;;;;15.57;1.98;;;;;;;8.54;71.08;98629.16;5159377;28;20058;-75
2022/11/24 05:41:42;;;;;;;12.63;2.05;;;;;;;8.83;69.86;98636.25;5150856;28;20524;-75
2022/11/24 05:44:33;;;;;;;7.97;1.90;;;;;;;8.61;70.82;98624.16;5162019;28;20112;-75
2022/11/24 05:47:23;;;;;;;14.43;2.10;;;;;;;8.40;71.37;98622.50;5150057;28;20420;-76
2022/11/24 05:50:16;;;;;;;10.48;1.92;;;;;;;8.21;71.95;98615.41;5161809;28;20077;-77
2022/11/24 05:53:11;;;;;;;17.88;2.90;;;;;;;7.98;73.09;98629.81;5161403;28;20050;-76
2022/11/24 05:56:02;;;;;;;13.48;2.22;;;;;;;8.04;72.76;98617.84;5162464;28;20139;-76
2022/11/24 05:58:53;;;;;;;16.52;2.70;;;;;;;7.73;74.60;98623.22;5160837;28;20065;-74
2022/11/24 06:01:43;;;;;;;12.07;2.58;;;;;;;7.75;72.73;98602.81;5163000;28;20183;-76
2022/11/24 06:04:33;;;;;;;8.60;2.28;;;;;;;8.11;72.91;98613.69;5162938;28;20073;-74
2022/11/24 06:07:24;;;;;;;7.97;2.00;;;;;;;8.08;72.32;98624.53;5155894;28;20050;-75
2022/11/24 06:10:15;;;;;;;15.07;2.15;;;;;;;8.12;71.60;98610.09;5161132;28;20062;-78
2022/11/24 06:13:06;;;;;;;15.82;2.75;;;;;;;8.09;72.12;98629.69;5157265;28;20062;-73
2022/11/24 06:15:58;;;;;;;18.98;2.72;;;;;;;7.96;73.48;98629.94;5160924;28;20057;-74
2022/11/24 06:18:48;;;;;;;13.25;2.47;;;;;;;7.96;72.86;98631.75;5159511;28;20069;-73
2022/11/24 06:21:38;;;;;;;21.40;2.58;;;;;;;7.95;72.58;98625.66;5160754;28;20125;-74
2022/11/24 06:24:29;;;;;;;12.25;2.35;;;;;;;7.88;72.75;98634.22;5155522;28;20054;-74
2022/11/24 06:27:19;;;;;;;18.25;2.15;;;;;;;8.33;70.33;98649.59;5161980;28;20043;-73
2022/11/24 06:30:11;;;;;;;12.02;2.83;;;;;;;8.22;70.90;98642.63;5160028;28;20556;-73
2022/11/24 06:33:01;;;;;;;10.23;2.53;;;;;;;8.18;71.31;98649.16;5159323;28;20052;-73
2022/11/24 06:35:52;;;;;;;13.13;2.53;;;;;;;8.49;70.33;98657.00;5145053;28;20112;-73
2022/11/24 06:38:42;;;;;;;9.75;2.50;;;;;;;8.71;69.28;98651.44;5173543;28;20054;-71
2022/11/24 06:41:32;;;;;;;13.38;2.70;;;;;;;8.89;69.27;98667.41;5159384;28;20543;-72
2022/11/24 06:44:23;;;;;;;11.40;2.40;;;;;;;8.91;68.00;98673.41;5160280;28;20529;-73
2022/11/24 06:47:14;;;;;;;15.43;2.28;;;;;;;8.93;67.86;98672.25;5164202;28;20069;-72
2022/11/24 06:50:05;;;;;;;15.70;2.40;;;;;;;9.28;67.72;98677.94;5163350;28;20152;-72
2022/11/24 06:52:55;;;;;;;12.43;2.60;;;;;;;9.37;66.86;98677.03;5161946;28;20081;-73
2022/11/24 06:55:46;;;;;;;10.48;2.20;;;;;;;9.28;67.55;98672.63;5146038;28;20109;-73
2022/11/24 06:58:44;;;;;;;7.35;2.55;;;;;;;9.26;67.27;98680.69;5160664;28;20047;-73
2022/11/24 07:01:34;;;;;;;21.90;2.45;;;;;;;9.29;67.61;98684.88;5159723;28;20046;-73
2022/11/24 07:04:24;;;;;;;12.63;2.17;;;;;;;9.32;68.66;98696.00;5159276;28;20177;-74
2022/11/24 07:07:14;;;;;;;10.20;2.45;;;;;;;9.31;68.32;98710.22;5161130;28;20061;-74
2022/11/24 07:10:05;;;;;;;18.15;3.38;;;;;;;9.24;69.08;98710.91;5159779;28;20140;-74
2022/11/24 07:12:56;;;;;;;15.75;3.80;;;;;;;9.20;69.28;98702.44;5164318;28;20664;-73
2022/11/24 07:15:46;;;;;;;21.67;3.60;;;;;;;8.98;69.53;98669.22;5166268;28;20050;-72
2022/11/24 07:18:36;;;;;;;14.10;3.50;;;;;;;9.31;69.41;98722.63;5165289;28;20066;-72
2022/11/24 07:21:28;;;;;;;13.10;2.65;;;;;;;9.33;69.92;98732.06;5165484;28;20054;-72
2022/11/24 07:24:18;;;;;;;10.45;2.47;;;;;;;9.36;70.28;98745.00;5166001;28;20061;-71
2022/11/24 07:27:08;;;;;;;12.93;2.65;;;;;;;9.24;69.87;98735.59;5165766;28;20073;-71
2022/11/24 07:29:58;;;;;;;16.67;3.00;;;;;;;9.33;69.98;98753.22;5164961;28;20051;-71
2022/11/24 07:32:48;;;;;;;8.77;3.10;;;;;;;9.32;70.01;98756.88;5165681;28;20057;-70
2022/11/24 07:35:38;;;;;;;15.50;4.10;;;;;;;9.29;70.96;98753.66;5165595;28;20136;-70
2022/11/24 07:38:30;;;;;;;15.05;3.72;;;;;;;9.34;70.55;98778.72;5166218;28;20109;-73
2022/11/24 07:41:20;;;;;;;15.50;2.60;;;;;;;9.25;71.26;98776.94;5165811;28;20053;-70
2022/11/24 07:44:11;;;;;;;15.93;2.63;;;;;;;9.49;70.58;98789.69;5164003;28;20133;-72
2022/11/24 07:47:01;;;;;;;12.20;3.00;;;;;;;9.12;72.31;98781.66;5164579;28;20101;-72
2022/11/24 07:49:51;;;;;;;19.88;2.55;;;;;;;9.35;71.71;98774.28;5165032;28;20128;-72
2022/11/24 07:52:42;;;;;;;15.18;2.30;;;;;;;9.29;70.90;98780.94;5165207;28;20196;-72
2022/11/24 07:55:32;;;;;;;14.32;1.77;;;;;;;9.41;71.13;98779.84;5164924;28;20579;-72
2022/11/24 07:58:22;;;;;;;14.10;1.85;;;;;;;9.49;70.66;98783.56;5145047;28;20077;-72
2022/11/24 08:01:18;;;;;;;10.32;1.85;;;;;;;9.48;70.93;98773.97;5163151;28;20061;-72
2022/11/24 08:04:08;;;;;;;12.27;1.55;;;;;;;9.58;70.97;98774.78;5160624;28;20154;-73
2022/11/24 08:07:01;;;;;;;10.48;1.67;;;;;;;9.52;71.34;98764.78;5160916;28;20532;-72
2022/11/24 08:09:51;;;;;;;13.93;2.20;;;;;;;9.52;69.81;98764.78;5162686;28;20049;-71
2022/11/24 08:12:41;;;;;;;6.53;1.50;;;;;;;9.11;70.18;98778.19;5163189;28;20049;-73
2022/11/24 08:15:33;;;;;;;7.45;2.03;;;;;;;9.34;70.61;98773.44;5162282;28;20453;-71
2022/11/24 08:18:23;;;;;;;4.60;1.17;;;;;;;9.51;69.87;98794.88;5163738;28;20066;-72
2022/11/24 08:21:14;;;;;;;8.32;1.70;;;;;;;9.64;69.68;98792.75;5143940;28;20062;-73
2022/11/24 08:24:04;;;;;;;6.60;1.40;;;;;;;9.43;69.60;98792.91;5143228;28;20567;-73
2022/11/24 08:26:54;;;;;;;8.60;2.40;;;;;;;9.72;69.69;98805.25;5144380;28;20145;-72
2022/11/24 08:29:44;;;;;;;10.00;1.60;;;;;;;9.82;69.36;98811.38;5144216;28;20047;-73
2022/11/24 08:32:34;;;;;;;5.55;1.83;;;;;;;9.83;70.18;98816.53;5143105;28;20058;-74
2022/11/24 08:35:24;;;;;;;6.13;2.13;;;;;;;9.80;69.30;98806.22;5143314;28;20518;-73
2022/11/24 08:38:16;;;;;;;7.68;2.30;;;;;;;9.92;70.03;98801.59;5218491;23;20048;-72
2022/11/24 08:41:09;;;;;;;6.90;2.65;;;;;;;9.88;70.23;98793.09;5207411;28;20266;-71
2022/11/24 08:43:59;;;;;;;9.05;2.42;;;;;;;9.97;69.44;98814.41;5204899;28;20119;-72
2022/11/24 08:46:49;;;;;;;7.22;3.08;;;;;;;10.04;69.75;98818.97;5204453;28;20056;-72
2022/11/24 08:49:40;;;;;;;9.48;2.13;;;;;;;9.97;68.90;98802.00;5203021;28;20223;-71
2022/11/24 08:52:29;;;;;;;6.78;1.90;;;;;;;10.17;69.50;98825.78;5204153;28;20057;-72
2022/11/24 08:55:20;;;;;;;7.72;2.05;;;;;;;10.14;68.88;98823.41;5203909;28;20053;-72
2022/11/24 08:58:10;;;;;;;4.88;0.90;;;;;;;10.00;69.02;98814.09;5204163;28;20150;-72
2022/11/24 09:01:04;;;;;;;6.32;1.30;;;;;;;10.08;68.60;98832.75;5204358;28;20068;-72
2022/11/24 09:03:54;;;;;;;3.58;1.00;;;;;;;9.94;68.70;98817.34;5187830;28;20137;-73
2022/11/24 09:06:45;;;;;;;4.47;1.33;;;;;;;10.09;69.12;98832.59;5203118;28;20053;-73
2022/11/24 09:09:35;;;;;;;5.15;1.80;;;;;;;10.12;68.15;98832.31;5203947;28;20065;-73
2022/11/24 09:12:25;;;;;;;5.93;1.48;;;;;;;10.10;68.16;98852.00;5203644;28;20057;-73
2022/11/24 09:15:15;;;;;;;4.75;1.45;;;;;;;10.50;67.69;98845.63;5204317;28;20072;-73
2022/11/24 09:18:05;;;;;;;6.00;1.48;;;;;;;10.64;66.90;98842.47;5203444;28;20179;-73
2022/11/24 09:21:08;;;;;;;5.68;0.90;;;;;;;10.81;67.85;98849.59;5203623;28;20425;-73
2022/11/24 09:23:58;;;;;;;3.63;0.90;;;;;;;10.63;66.82;98850.53;5203557;28;20056;-73
2022/11/24 09:26:48;;;;;;;2.30;0.80;;;;;;;10.80;65.04;98834.69;5203864;28;20135;-73
2022/11/24 09:29:38;;;;;;;3.30;1.27;;;;;;;10.88;67.04;98864.94;5203552;28;20053;-73
2022/11/24 09:32:29;;;;;;;4.80;1.33;;;;;;;10.56;64.98;98868.84;5203179;28;20119;-73
2022/11/24 09:35:20;;;;;;;4.28;1.33;;;;;;;10.69;65.92;98849.97;5188557;28;20049;-73
2022/11/24 09:38:10;;;;;;;2.95;0.65;;;;;;;10.70;65.88;98873.69;5202931;28;20343;-73
2022/11/24 09:41:34;;;;;;;3.35;0.90;;;;;;;10.85;66.18;98886.44;5202506;28;20545;-73
2022/11/24 09:44:50;;;;;;;3.25;1.17;;;;;;;10.97;65.10;98894.06;5203557;28;20183;-73
2022/11/24 09:47:50;;;;;;;1.63;0.90;;;;;;;10.90;65.87;98894.81;5203044;28;20107;-73
2022/11/24 09:50:42;;;;;;;2.47;1.30;;;;;;;11.04;65.21;98891.66;5202851;28;20427;-72
2022/11/24 09:53:38;;;;;;;2.60;0.95;;;;;;;10.73;64.56;98904.41;5202708;28;20059;-72
2022/11/24 09:56:33;;;;;;;0.85;0.80;;;;;;;10.34;65.76;98900.06;5203339;28;20053;-73
2022/11/24 09:59:25;;;;;;;0.90;0.77;;;;;;;10.77;65.11;98905.75;5202950;28;20057;-72
2022/11/24 10:02:15;;;;;;;0.70;0.40;;;;;;;10.70;65.32;98921.44;5202825;28;20500;-73
2022/11/24 10:05:06;;;;;;;1.15;0.63;;;;;;;10.84;64.71;98912.16;5203461;28;20053;-72
2022/11/24 10:08:11;;;;;;;0.38;0.38;;;;;;;10.85;65.06;98926.22;5202627;28;20060;-73
2022/11/24 10:11:13;;;;;;;1.00;0.50;;;;;;;10.71;65.77;98920.44;5188213;28;20049;-72
2022/11/24 10:14:41;;;;;;;1.60;0.80;;;;;;;10.55;66.75;98926.34;5203396;28;20513;-73
2022/11/24 10:17:54;;;;;;;0.90;0.75;;;;;;;10.96;65.64;98920.72;5202075;28;20550;-72
2022/11/24 10:21:00;;;;;;;1.25;0.40;;;;;;;10.91;64.32;98920.34;5202049;28;20064;-71
2022/11/24 10:24:05;;;;;;;1.02;0.60;;;;;;;10.95;64.04;98917.25;5203231;28;20128;-72
2022/11/24 10:27:02;;;;;;;0.80;0.52;;;;;;;10.81;64.19;98926.53;5201977;28;20103;-73
2022/11/24 10:29:54;;;;;;;1.13;0.75;;;;;;;10.96;65.00;98918.06;5202357;28;20053;-71
2022/11/24 10:32:54;;;;;;;1.75;0.82;;;;;;;10.55;65.94;98922.88;5189395;28;20057;-71
2022/11/24 10:35:52;;;;;;;1.65;0.60;;;;;;;11.00;65.03;98927.44;5203593;28;20096;-72
2022/11/24 10:39:23;;;;;;;3.22;1.13;;;;;;;10.39;65.18;98874.94;5188122;28;20123;-71
2022/11/24 10:42:25;;;;;;;3.08;0.90;;;;;;;10.65;65.79;98913.06;5186893;28;20060;-72
2022/11/24 10:45:17;;;;;;;3.20;1.23;;;;;;;10.93;66.42;98932.50;5201852;28;20059;-72
2022/11/24 10:48:18;;;;;;;4.80;1.70;;;;;;;11.05;65.64;98930.44;5200678;28;20053;-72
2022/11/24 10:51:27;;;;;;;4.30;1.40;;;;;;;10.96;66.71;98918.94;5202201;28;20053;-73
2022/11/24 10:54:20;;;;;;;4.03;1.38;;;;;;;11.08;66.92;98916.06;5203062;28;20320;-72
2022/11/24 10:57:25;;;;;;;2.60;1.05;;;;;;;11.20;66.46;98930.81;5202627;28;20186;-72
2022/11/24 11:00:18;;;;;;;4.43;0.80;;;;;;;11.12;66.43;98931.53;5201002;28;20054;-72
2022/11/24 11:03:16;;;;;;;5.15;0.93;;;;;;;11.29;67.18;98925.44;5201179;28;20191;-71
2022/11/24 11:06:14;;;;;;;4.75;1.70;;;;;;;11.58;66.75;98920.88;5201467;28;20438;-72
2022/11/24 11:09:07;;;;;;;3.88;1.67;;;;;;;11.73;66.20;98924.69;5202024;28;20064;-72
2022/11/24 11:12:09;;;;;;;4.82;1.40;;;;;;;11.70;66.80;98909.88;5202176;28;20046;-72
2022/11/24 11:15:25;;;;;;;2.28;1.10;;;;;;;11.67;65.75;98925.28;5201866;28;20050;-72
2022/11/24 11:18:18;;;;;;;2.35;1.40;;;;;;;11.70;66.24;98917.84;5202159;28;20135;-72
2022/11/24 11:21:28;;;;;;;2.35;0.90;;;;;;;11.50;66.31;98911.84;5200985;28;20187;-71
2022/11/24 11:24:18;;;;;;;1.52;0.73;;;;;;;11.81;65.50;98918.59;5202623;28;20430;-72
2022/11/24 11:27:23;;;;;;;4.00;1.00;;;;;;;11.79;66.52;98916.09;5202422;28;20565;-72
2022/11/24 11:30:19;;;;;;;2.45;0.90;;;;;;;11.82;65.12;98920.25;5201626;28;20505;-73
2022/11/24 11:33:31;;;;;;;2.88;0.93;;;;;;;11.81;65.16;98905.31;5201401;28;20122;-72
2022/11/24 11:36:45;;;;;;;1.25;0.77;;;;;;;11.76;65.64;98900.47;5201280;28;20339;-72
2022/11/24 11:39:38;;;;;;;5.50;1.25;;;;;;;11.05;66.46;98912.72;5201696;28;20152;-73
2022/11/24 11:42:43;;;;;;;2.33;0.98;;;;;;;11.63;65.72;98924.75;5201246;28;20449;-73
2022/11/24 11:46:10;;;;;;;6.18;1.20;;;;;;;12.06;65.67;98923.16;5201937;28;20060;-72
2022/11/24 11:49:01;;;;;;;10.23;1.85;;;;;;;11.46;64.87;98912.31;5201914;28;20076;-72
2022/11/24 11:52:21;;;;;;;5.10;1.10;;;;;;;11.49;65.95;98902.22;5201619;28;20056;-73
2022/11/24 11:56:02;;;;;;;10.45;1.73;;;;;;;11.11;66.17;98924.56;5200448;28;20058;-72
2022/11/24 11:59:05;;;;;;;12.73;1.80;;;;;;;11.11;65.58;98926.38;5178745;28;20047;-73
2022/11/24 12:02:33;;;;;;;12.82;1.63;;;;;;;11.71;64.24;98929.31;5204397;28;20080;-72
2022/11/24 12:05:47;;;;;;;9.00;1.75;;;;;;;11.19;65.42;98914.03;5205945;28;20080;-72
2022/11/24 12:08:56;;;;;;;8.73;2.22;;;;;;;10.76;66.63;98938.53;5204767;28;20171;-72
2022/11/24 12:12:45;;;;;;;12.70;1.77;;;;;;;11.53;64.64;98938.09;5204795;28;20140;-71
2022/11/24 12:15:47;;;;;;;14.15;2.35;;;;;;;11.80;64.75;98939.00;5141730;28;20061;-72
2022/11/24 12:19:10;;;;;;;11.70;2.55;;;;;;;11.64;64.56;98942.34;5127718;28;20051;-72
2022/11/24 12:22:12;;;;;;;12.15;1.95;;;;;;;11.32;63.33;98916.31;5203888;28;20049;-71
2022/11/24 12:25:24;;;;;;;16.42;2.08;;;;;;;11.41;63.51;98928.69;5205739;28;20120;-70
2022/11/24 12:28:37;;;;;;;11.98;1.90;;;;;;;11.05;64.09;98941.91;5203731;28;20050;-71
2022/11/24 12:31:44;;;;;;;12.00;1.60;;;;;;;10.57;64.75;98944.78;5204464;28;20056;-71
2022/11/24 12:34:49;;;;;;;12.13;1.75;;;;;;;11.23;64.86;98939.28;5190311;28;20534;-72
2022/11/24 12:37:45;;;;;;;9.50;1.80;;;;;;;11.01;63.55;98945.00;5204364;28;20598;-71
2022/11/24 12:41:12;;;;;;;12.85;1.92;;;;;;;11.11;64.27;98948.44;5203372;28;20103;-71
2022/11/24 12:44:58;;;;;;;11.60;1.55;;;;;;;11.47;63.47;98945.84;5204944;28;20108;-71
2022/11/24 12:47:57;;;;;;;13.77;1.92;;;;;;;11.66;63.29;98945.69;5140679;28;20046;-71
2022/11/24 12:50:50;;;;;;;7.70;1.80;;;;;;;11.64;62.08;98942.34;5203278;28;20059;-71
2022/11/24 12:53:42;;;;;;;13.60;1.73;;;;;;;11.62;63.02;98947.00;5205161;28;20053;-71
2022/11/24 12:56:56;;;;;;;10.18;1.75;;;;;;;11.71;62.20;98946.06;5203181;28;20242;-71
2022/11/24 13:00:06;;;;;;;12.07;1.67;;;;;;;11.88;62.32;98951.56;5203242;28;20179;-71
2022/11/24 13:03:07;;;;;;;12.13;2.05;;;;;;;12.10;61.33;98936.97;5204380;28;20048;-71
2022/11/24 13:06:16;;;;;;;15.88;1.85;;;;;;;11.55;60.43;98955.69;5204262;28;20192;-70
2022/11/24 13:09:11;;;;;;;11.32;2.53;;;;;;;11.72;60.56;98947.75;5201900;28;20167;-71
2022/11/24 13:12:12;;;;;;;12.60;1.70;;;;;;;11.70;60.27;98954.19;5203616;28;20072;-70
2022/11/24 13:15:14;;;;;;;17.02;2.25;;;;;;;11.47;60.66;98951.16;5203311;28;20151;-70
2022/11/24 13:18:50;;;;;;;8.25;1.67;;;;;;;11.31;60.65;98962.44;5203670;28;20141;-71
2022/11/24 13:21:49;;;;;;;7.53;1.70;;;;;;;11.17;61.10;98955.81;5203551;28;20147;-71
2022/11/24 13:24:41;;;;;;;9.70;1.45;;;;;;;11.82;60.39;98960.09;5204242;28;20057;-71
2022/11/24 13:27:51;;;;;;;8.07;1.50;;;;;;;11.51;59.85;98948.03;5203732;28;20112;-71
2022/11/24 13:30:44;;;;;;;15.23;1.70;;;;;;;11.59;59.51;98954.41;5203472;28;20514;-71
2022/11/24 13:33:34;;;;;;;14.20;2.05;;;;;;;11.57;59.64;98954.56;5203236;28;20068;-71
2022/11/24 13:36:24;;;;;;;9.68;2.15;;;;;;;11.76;59.88;98961.56;5203786;28;20130;-71
2022/11/24 13:39:20;;;;;;;12.45;2.38;;;;;;;11.65;60.00;98954.63;5202408;28;20056;-71
2022/11/24 13:42:10;;;;;;;20.00;2.28;;;;;;;11.53;59.25;98945.25;5203259;28;20052;-73
2022/11/24 13:45:38;;;;;;;11.68;2.50;;;;;;;11.63;60.19;98958.44;5204185;28;20060;-71
2022/11/24 13:48:49;;;;;;;15.43;2.75;;;;;;;11.43;60.29;98958.59;5203217;28;20060;-71